createdAt,value
2022-11-28T00:04:51.413Z,26.10
2022-11-28T00:09:52.238Z,29.05
2022-11-28T00:14:53.258Z,19.48
2022-11-28T00:19:53.994Z,25.73
2022-11-28T00:24:55.439Z,24.10
2022-11-28T00:29:56.335Z,24.63
2022-11-28T00:34:57.102Z,23.12
2022-11-28T00:39:57.926Z,30.25
2022-11-28T00:44:58.730Z,30.58
2022-11-28T00:49:59.451Z,28.58
2022-11-28T00:55:00.580Z,45.90
2022-11-28T01:00:01.347Z,34.60
2022-11-28T01:05:02.291Z,34.35
2022-11-28T01:10:03.705Z,35.80
2022-11-28T01:15:07.280Z,39.90
2022-11-28T01:20:09.103Z,25.45
2022-11-28T01:25:10.034Z,35.90
2022-11-28T01:30:10.902Z,28.08
2022-11-28T01:35:11.921Z,40.22
2022-11-28T01:40:13.230Z,29.58
2022-11-28T01:45:20.911Z,27.67
2022-11-28T01:50:23.450Z,26.60
2022-11-28T01:55:28.624Z,23.38
2022-11-28T02:00:29.862Z,27.33
2022-11-28T02:05:30.740Z,24.77
2022-11-28T02:10:48.259Z,25.15
2022-11-28T02:17:40.478Z,25.23
2022-11-28T02:22:56.668Z,21.50
2022-11-28T02:28:35.280Z,28.05
2022-11-28T02:33:43.703Z,24.55
2022-11-28T02:45:44.317Z,26.27
2022-11-28T02:51:14.301Z,23.83
2022-11-28T02:56:15.274Z,23.55
2022-11-28T03:01:27.559Z,25.25
2022-11-28T03:07:48.482Z,22.73
2022-11-28T03:14:45.702Z,26.25
2022-11-28T03:20:01.099Z,18.80
2022-11-28T03:25:19.968Z,23.10
2022-11-28T03:30:32.302Z,24.12
2022-11-28T03:35:39.118Z,21.93
2022-11-28T03:40:45.116Z,23.10
2022-11-28T03:45:56.145Z,23.38
2022-11-28T03:51:15.747Z,27.10
2022-11-28T03:56:28.279Z,22.77
2022-11-28T04:01:35.530Z,22.37
2022-11-28T04:09:50.957Z,24.35
2022-11-28T04:14:57.359Z,24.73
2022-11-28T04:20:20.193Z,23.00
2022-11-28T04:25:23.415Z,20.73
2022-11-28T04:30:26.945Z,25.30
2022-11-28T04:35:32.641Z,23.67
2022-11-28T04:47:25.253Z,24.25
2022-11-28T04:52:37.825Z,24.73
2022-11-28T04:58:12.414Z,24.57
2022-11-28T05:03:13.336Z,22.10
2022-11-28T05:08:14.710Z,24.67
2022-11-28T05:13:16.002Z,28.25
2022-11-28T05:18:16.792Z,24.08
2022-11-28T05:23:17.740Z,26.77
2022-11-28T05:28:18.518Z,26.87
2022-11-28T05:33:19.241Z,24.20
2022-11-28T05:38:20.233Z,26.67
2022-11-28T05:43:21.076Z,26.20
2022-11-28T05:48:22.652Z,29.77
2022-11-28T05:53:23.706Z,24.35
2022-11-28T05:58:24.561Z,25.37
2022-11-28T06:03:25.342Z,28.55
2022-11-28T06:08:26.151Z,26.08
2022-11-28T06:13:27.211Z,25.00
2022-11-28T06:18:27.984Z,24.55
2022-11-28T06:23:29.111Z,26.35
2022-11-28T06:28:29.868Z,28.05
2022-11-28T06:33:30.721Z,36.78
2022-11-28T06:38:32.461Z,29.48
2022-11-28T06:43:34.086Z,26.52
2022-11-28T06:48:34.806Z,29.05
2022-11-28T06:53:35.861Z,24.92
2022-11-28T06:58:36.807Z,26.87
2022-11-28T07:03:38.796Z,64.90
2022-11-28T07:08:40.164Z,34.28
2022-11-28T07:13:42.105Z,26.42
2022-11-28T07:18:49.094Z,28.90
2022-11-28T07:23:51.556Z,30.00
2022-11-28T07:28:52.615Z,36.03
2022-11-28T07:33:53.391Z,35.50
2022-11-28T07:38:57.060Z,29.73
2022-11-28T07:44:00.268Z,36.03
2022-11-28T07:49:02.079Z,27.23
2022-11-28T07:54:04.402Z,50.10
2022-11-28T07:59:05.821Z,26.87
2022-11-28T08:04:09.172Z,27.90
2022-11-28T08:09:13.345Z,35.60
2022-11-28T08:14:14.207Z,26.02
2022-11-28T08:19:15.301Z,23.67
2022-11-28T08:24:16.274Z,26.33
2022-11-28T08:29:17.064Z,27.77
2022-11-28T08:34:17.805Z,25.65
2022-11-28T08:39:26.497Z,25.83
2022-11-28T08:44:30.234Z,24.63
2022-11-28T08:49:31.907Z,26.05
2022-11-28T08:54:32.932Z,35.45
2022-11-28T08:59:33.721Z,27.55
2022-11-28T09:04:34.453Z,37.22
2022-11-28T09:09:35.242Z,25.50
2022-11-28T09:14:37.019Z,37.10
2022-11-28T09:19:38.508Z,62.03
2022-11-28T09:24:39.344Z,42.88
2022-11-28T09:29:40.496Z,33.22
2022-11-28T09:34:41.493Z,37.97
2022-11-28T09:40:04.932Z,25.55
2022-11-28T09:45:24.470Z,25.48
2022-11-28T09:50:30.457Z,26.90
2022-11-28T09:55:41.150Z,28.25
2022-11-28T10:01:15.265Z,35.70
2022-11-28T10:06:53.208Z,26.17
2022-11-28T10:12:42.961Z,25.25
2022-11-28T10:19:20.309Z,23.23
2022-11-28T10:24:54.702Z,32.17
2022-11-28T10:30:05.919Z,27.52
2022-11-28T10:35:25.159Z,23.17
2022-11-28T10:41:06.813Z,26.02
2022-11-28T10:54:13.688Z,23.08
2022-11-28T10:59:56.989Z,23.40
2022-11-28T11:04:57.824Z,28.80
2022-11-28T11:10:14.001Z,31.00
2022-11-28T11:15:41.347Z,28.27
2022-11-28T11:20:42.497Z,35.00
2022-11-28T11:25:54.864Z,48.58
2022-11-28T11:31:14.563Z,30.70
2022-11-28T11:36:34.960Z,32.45
2022-11-28T11:41:38.007Z,29.87
2022-11-28T11:47:02.044Z,27.92
2022-11-28T11:52:25.474Z,28.08
2022-11-28T12:00:11.113Z,30.55
2022-11-28T12:05:20.264Z,34.10
2022-11-28T12:10:25.735Z,68.32
2022-11-28T12:15:55.662Z,32.15
2022-11-28T12:21:33.893Z,43.13
2022-11-28T12:26:51.268Z,30.15
2022-11-28T12:32:24.211Z,38.17
2022-11-28T12:38:35.625Z,39.87
2022-11-28T12:45:29.854Z,37.60
2022-11-28T12:50:39.227Z,39.78
2022-11-28T12:57:26.531Z,37.45
2022-11-28T13:02:52.620Z,41.60
2022-11-28T13:08:52.296Z,37.38
2022-11-28T13:14:12.840Z,44.95
2022-11-28T13:22:22.812Z,41.58
2022-11-28T13:27:48.233Z,39.92
2022-11-28T13:33:29.803Z,42.45
2022-11-28T13:40:17.835Z,45.22
2022-11-28T13:45:32.489Z,41.30
2022-11-28T13:50:39.084Z,45.38
2022-11-28T13:55:45.751Z,50.60
2022-11-28T14:01:04.205Z,61.72
2022-11-28T14:06:06.682Z,44.88
2022-11-28T14:11:39.841Z,38.77
2022-11-28T14:20:32.397Z,46.47
2022-11-28T14:25:40.767Z,41.60
2022-11-28T14:30:45.139Z,38.03
2022-11-28T14:36:52.720Z,50.38
2022-11-28T14:43:20.268Z,50.83
2022-11-28T14:48:31.447Z,41.30
2022-11-28T14:53:51.138Z,44.15
2022-11-28T14:58:56.430Z,41.42
2022-11-28T15:04:22.306Z,45.15
2022-11-28T15:09:38.104Z,48.03
2022-11-28T15:14:39.811Z,44.72
2022-11-28T15:19:47.430Z,47.80
2022-11-28T15:24:51.866Z,46.53
2022-11-28T15:30:00.896Z,49.45
2022-11-28T15:35:10.825Z,45.90
2022-11-28T15:40:34.997Z,64.62
2022-11-28T15:45:37.029Z,52.60
2022-11-28T15:50:49.864Z,63.80
2022-11-28T15:56:14.339Z,62.40
2022-11-28T16:01:36.695Z,69.07
2022-11-28T16:06:40.547Z,55.97
2022-11-28T16:11:44.275Z,60.40
2022-11-28T16:16:45.525Z,57.95
2022-11-28T16:21:53.481Z,67.85
2022-11-28T16:27:08.771Z,60.22
2022-11-28T16:32:22.652Z,64.20
2022-11-28T16:37:26.507Z,59.40
2022-11-28T16:42:27.649Z,60.90
2022-11-28T16:47:30.301Z,63.22
2022-11-28T16:52:50.774Z,61.78
2022-11-28T16:57:56.224Z,50.65
2022-11-28T17:02:56.965Z,44.67
2022-11-28T17:08:00.879Z,40.47
2022-11-28T17:13:01.610Z,52.20
2022-11-28T17:18:02.781Z,62.42
2022-11-28T17:23:03.840Z,57.50
2022-11-28T17:28:04.617Z,51.47
2022-11-28T17:33:05.353Z,46.20
2022-11-28T17:38:06.426Z,42.65
2022-11-28T17:43:15.810Z,41.58
2022-11-28T17:48:17.364Z,46.92
2022-11-28T17:53:20.549Z,45.63
2022-11-28T17:58:25.900Z,44.47
2022-11-28T18:03:28.395Z,45.58
2022-11-28T18:08:29.547Z,60.47
2022-11-28T18:13:31.185Z,52.97
2022-11-28T18:18:32.373Z,42.58
2022-11-28T18:23:38.869Z,48.42
2022-11-28T18:28:40.742Z,44.78
2022-11-28T18:33:42.514Z,38.35
2022-11-28T18:38:45.164Z,36.20
2022-11-28T18:43:46.116Z,41.55
2022-11-28T18:48:47.143Z,35.70
2022-11-28T18:53:49.592Z,39.97
2022-11-28T19:03:59.404Z,41.83
2022-11-28T19:09:03.328Z,42.55
2022-11-28T19:14:06.117Z,42.58
2022-11-28T19:19:07.012Z,40.25
2022-11-28T19:24:11.521Z,39.17
2022-11-28T19:29:12.417Z,43.65
2022-11-28T19:34:16.632Z,52.58
2022-11-28T19:39:21.865Z,45.97
2022-11-28T19:44:23.997Z,52.80
2022-11-28T19:49:25.681Z,55.45
2022-11-28T19:54:26.597Z,55.53
2022-11-28T19:59:30.476Z,53.25
2022-11-28T20:04:31.785Z,57.83
2022-11-28T20:09:32.594Z,51.97
2022-11-28T20:14:33.466Z,48.53
2022-11-28T20:19:34.413Z,44.08
2022-11-28T20:24:35.175Z,49.53
2022-11-28T20:29:36.230Z,44.58
2022-11-28T20:34:37.231Z,58.03
2022-11-28T20:39:39.403Z,48.78
2022-11-28T20:44:40.134Z,44.70
2022-11-28T20:49:41.298Z,49.83
2022-11-28T20:54:42.284Z,53.72
2022-11-28T20:59:43.452Z,56.65
2022-11-28T21:04:44.455Z,49.22
2022-11-28T21:09:45.555Z,43.78
2022-11-28T21:14:46.508Z,51.13
2022-11-28T21:19:47.543Z,54.38
2022-11-28T21:24:49.783Z,45.50
2022-11-28T21:29:51.535Z,49.20
2022-11-28T21:34:52.826Z,61.35
2022-11-28T21:39:53.816Z,51.20
2022-11-28T21:44:54.641Z,44.95
2022-11-28T21:49:55.743Z,51.60
2022-11-28T21:54:56.578Z,42.17
2022-11-28T21:59:57.427Z,43.20
2022-11-28T22:04:59.207Z,45.42
2022-11-28T22:10:00.287Z,44.78
2022-11-28T22:15:01.213Z,45.17
2022-11-28T22:20:04.336Z,41.90
2022-11-28T22:25:06.127Z,47.03
2022-11-28T22:30:08.935Z,42.75
2022-11-28T22:35:09.685Z,39.65
2022-11-28T22:40:11.955Z,45.85
2022-11-28T22:45:12.893Z,37.53
2022-11-28T22:50:14.032Z,37.45
2022-11-28T22:55:14.967Z,34.90
2022-11-28T23:00:16.492Z,29.23
2022-11-28T23:05:17.715Z,27.85
2022-11-28T23:10:18.570Z,30.88
2022-11-28T23:15:19.356Z,30.35
2022-11-28T23:20:21.484Z,31.23
2022-11-28T23:25:22.196Z,29.17
2022-11-28T23:30:26.423Z,31.90
2022-11-28T23:35:27.155Z,40.53
2022-11-28T23:40:28.512Z,41.97
2022-11-28T23:45:29.314Z,45.92
2022-11-28T23:50:31.161Z,28.12
2022-11-28T23:55:33.124Z,31.35
